createdAt,value
2018-05-15T00:02:21.825Z,115.13
2018-05-15T00:04:49.957Z,110.97
2018-05-15T00:07:18.893Z,110.13
2018-05-15T00:09:47.065Z,114.77
2018-05-15T00:12:15.195Z,115.10
2018-05-15T00:14:44.092Z,110.93
2018-05-15T00:17:13.043Z,115.10
2018-05-15T00:19:41.196Z,119.17
2018-05-15T00:22:09.366Z,114.63
2018-05-15T00:24:37.526Z,114.43
2018-05-15T00:27:05.661Z,132.43
2018-05-15T00:29:33.821Z,119.27
2018-05-15T00:32:01.965Z,119.33
2018-05-15T00:34:30.122Z,112.77
2018-05-15T00:36:58.269Z,123.00
2018-05-15T00:39:27.170Z,109.53
2018-05-15T00:41:55.373Z,112.00
2018-05-15T00:44:23.503Z,116.53
2018-05-15T00:46:52.404Z,117.90
2018-05-15T00:49:21.326Z,114.33
2018-05-15T00:51:49.532Z,124.40
2018-05-15T00:54:18.380Z,119.33
2018-05-15T00:56:46.589Z,115.23
2018-05-15T00:59:14.894Z,126.73
2018-05-15T01:01:43.056Z,121.77
2018-05-15T01:04:11.197Z,120.90
2018-05-15T01:06:39.355Z,121.97
2018-05-15T01:09:07.504Z,127.13
2018-05-15T01:11:36.530Z,128.93
2018-05-15T01:14:04.644Z,122.50
2018-05-15T01:16:32.794Z,127.00
2018-05-15T01:19:00.950Z,128.73
2018-05-15T01:21:29.230Z,133.77
2018-05-15T01:23:57.372Z,132.43
2018-05-15T01:26:26.305Z,135.30
2018-05-15T01:28:54.459Z,131.00
2018-05-15T01:31:22.608Z,123.20
2018-05-15T01:33:50.765Z,135.50
2018-05-15T01:36:18.900Z,135.93
2018-05-15T01:38:47.055Z,130.33
2018-05-15T01:41:15.196Z,136.77
2018-05-15T01:43:44.113Z,136.50
2018-05-15T01:46:12.238Z,124.83
2018-05-15T01:48:40.452Z,126.90
2018-05-15T01:51:09.769Z,140.23
2018-05-15T01:53:37.949Z,137.73
2018-05-15T01:56:06.124Z,135.03
2018-05-15T01:58:34.308Z,135.27
2018-05-15T02:01:02.462Z,125.87
2018-05-15T02:03:30.606Z,156.07
2018-05-15T02:05:59.526Z,132.70
2018-05-15T02:08:27.734Z,126.03
2018-05-15T02:10:55.975Z,131.93
2018-05-15T02:13:24.150Z,145.00
2018-05-15T02:15:52.320Z,143.80
2018-05-15T02:18:20.492Z,151.37
2018-05-15T02:20:48.667Z,139.93
2018-05-15T02:23:16.874Z,136.40
2018-05-15T02:25:45.004Z,141.43
2018-05-15T02:28:13.200Z,145.80
2018-05-15T02:30:41.354Z,135.40
2018-05-15T02:33:09.540Z,125.20
2018-05-15T02:35:37.704Z,122.10
2018-05-15T02:38:05.904Z,129.90
2018-05-15T02:40:34.072Z,133.97
2018-05-15T02:43:02.233Z,123.90
2018-05-15T02:45:30.372Z,120.57
2018-05-15T02:47:59.301Z,122.37
2018-05-15T02:50:27.569Z,129.50
2018-05-15T02:52:55.718Z,127.50
2018-05-15T02:55:24.704Z,134.73
2018-05-15T02:57:53.612Z,132.73
2018-05-15T03:00:21.806Z,116.93
2018-05-15T03:02:49.952Z,127.03
2018-05-15T03:05:18.886Z,135.30
2018-05-15T03:07:47.024Z,114.37
2018-05-15T03:10:15.184Z,117.10
2018-05-15T03:12:44.097Z,122.40
2018-05-15T03:15:12.227Z,116.50
2018-05-15T03:17:40.379Z,111.50
2018-05-15T03:20:08.541Z,116.30
2018-05-15T03:22:36.714Z,127.90
2018-05-15T03:25:04.849Z,123.77
2018-05-15T03:27:33.753Z,111.60
2018-05-15T03:30:01.965Z,119.57
2018-05-15T03:32:30.244Z,119.00
2018-05-15T03:34:58.377Z,121.13
2018-05-15T03:37:26.539Z,116.37
2018-05-15T03:39:54.721Z,109.73
2018-05-15T03:42:23.014Z,102.67
2018-05-15T03:44:51.131Z,116.57
2018-05-15T03:47:19.272Z,120.30
2018-05-15T03:49:47.533Z,113.30
2018-05-15T03:52:15.729Z,105.90
2018-05-15T03:54:43.878Z,109.00
2018-05-15T03:57:12.049Z,93.73
2018-05-15T03:59:40.222Z,96.70
2018-05-15T04:02:21.183Z,112.87
2018-05-15T04:08:12.048Z,113.00
2018-05-15T04:10:40.188Z,113.67
2018-05-15T04:13:08.404Z,114.83
2018-05-15T04:15:36.541Z,109.87
2018-05-15T04:18:04.717Z,112.90
2018-05-15T04:20:32.877Z,122.83
2018-05-15T04:23:01.032Z,128.37
2018-05-15T04:25:29.948Z,125.73
2018-05-15T04:27:58.190Z,118.70
2018-05-15T04:30:26.292Z,128.43
2018-05-15T04:32:54.479Z,119.97
2018-05-15T04:35:22.745Z,122.03
2018-05-15T04:37:50.814Z,126.30
2018-05-15T04:40:18.994Z,122.57
2018-05-15T04:42:47.165Z,118.50
2018-05-15T04:45:15.317Z,127.60
2018-05-15T04:47:44.226Z,128.97
2018-05-15T04:50:13.145Z,126.37
2018-05-15T04:52:41.316Z,119.27
2018-05-15T04:55:09.452Z,129.40
2018-05-15T04:57:37.595Z,117.57
2018-05-15T05:00:05.816Z,120.03
2018-05-15T05:02:33.972Z,130.87
2018-05-15T05:05:02.877Z,128.33
2018-05-15T05:07:31.017Z,126.10
2018-05-15T05:09:59.225Z,126.10
2018-05-15T05:12:27.404Z,129.10
2018-05-15T05:14:55.548Z,120.80
2018-05-15T05:17:24.484Z,132.70
2018-05-15T05:19:52.620Z,119.03
2018-05-15T05:22:20.764Z,131.00
2018-05-15T05:24:48.990Z,122.77
2018-05-15T05:27:17.177Z,127.00
2018-05-15T05:29:45.257Z,128.43
2018-05-15T05:32:13.428Z,122.90
2018-05-15T05:34:41.606Z,122.67
2018-05-15T05:37:09.728Z,122.27
2018-05-15T05:39:38.636Z,119.80
2018-05-15T05:42:06.796Z,129.83
2018-05-15T05:44:35.824Z,125.27
2018-05-15T05:47:03.997Z,121.77
2018-05-15T05:49:32.167Z,114.43
2018-05-15T05:52:00.392Z,122.73
2018-05-15T05:54:28.603Z,119.93
2018-05-15T05:56:56.748Z,112.37
2018-05-15T05:59:25.684Z,121.13
2018-05-15T06:01:53.827Z,121.83
2018-05-15T06:04:22.029Z,116.17
2018-05-15T06:06:50.217Z,115.57
2018-05-15T06:09:18.376Z,125.43
2018-05-15T06:11:46.534Z,128.67
2018-05-15T06:14:14.709Z,121.90
2018-05-15T06:16:42.910Z,109.00
2018-05-15T06:19:11.175Z,115.13
2018-05-15T06:21:39.338Z,121.10
2018-05-15T06:24:07.508Z,114.17
2018-05-15T06:26:35.650Z,111.30
2018-05-15T06:29:04.558Z,118.70
2018-05-15T06:31:32.804Z,116.93
2018-05-15T06:34:00.964Z,111.63
2018-05-15T06:36:30.640Z,120.43
2018-05-15T06:38:58.814Z,118.20
2018-05-15T06:41:26.970Z,108.27
2018-05-15T06:43:55.107Z,104.77
2018-05-15T06:46:23.560Z,113.33
2018-05-15T06:48:51.728Z,110.17
2018-05-15T06:51:19.908Z,111.37
2018-05-15T06:53:48.268Z,97.67
2018-05-15T06:56:16.396Z,112.97
2018-05-15T06:58:44.621Z,100.40
2018-05-15T07:01:12.792Z,107.73
2018-05-15T07:03:40.948Z,98.80
2018-05-15T07:06:09.096Z,106.23
2018-05-15T07:08:38.048Z,100.03
2018-05-15T07:11:06.200Z,94.70
2018-05-15T07:13:34.876Z,108.40
2018-05-15T07:16:03.038Z,108.30
2018-05-15T07:18:31.236Z,97.20
2018-05-15T07:20:59.396Z,104.53
2018-05-15T07:23:27.684Z,100.63
2018-05-15T07:25:55.823Z,102.57
2018-05-15T07:28:24.748Z,89.87
2018-05-15T07:30:52.951Z,96.10
2018-05-15T07:33:22.736Z,95.13
2018-05-15T07:35:50.921Z,90.07
2018-05-15T07:38:19.082Z,91.67
2018-05-15T07:40:47.196Z,92.17
2018-05-15T07:43:15.421Z,95.13
2018-05-15T07:45:43.708Z,89.83
2018-05-15T07:48:11.852Z,92.53
2018-05-15T07:50:40.766Z,88.40
2018-05-15T07:53:08.944Z,87.80
2018-05-15T07:55:37.219Z,91.13
2018-05-15T07:58:05.345Z,84.23
2018-05-15T08:00:33.489Z,86.53
2018-05-15T08:03:01.844Z,84.10
2018-05-15T08:05:29.999Z,83.80
2018-05-15T08:07:58.141Z,87.27
2018-05-15T08:10:26.363Z,83.20
2018-05-15T08:12:54.533Z,78.77
2018-05-15T08:15:22.701Z,73.53
2018-05-15T08:17:50.835Z,80.27
2018-05-15T08:20:18.969Z,73.47
2018-05-15T08:22:47.129Z,72.83
2018-05-15T08:25:15.409Z,74.80
2018-05-15T08:27:43.547Z,85.67
2018-05-15T08:30:11.757Z,79.67
2018-05-15T08:32:39.940Z,79.00
2018-05-15T08:35:08.207Z,77.93
2018-05-15T08:37:36.423Z,79.63
2018-05-15T08:40:04.557Z,73.90
2018-05-15T08:42:32.741Z,78.53
2018-05-15T08:45:00.889Z,72.10
2018-05-15T08:47:29.033Z,76.37
2018-05-15T08:49:57.985Z,72.83
2018-05-15T08:52:26.139Z,70.73
2018-05-15T08:54:54.305Z,73.57
2018-05-15T08:57:22.437Z,68.30
2018-05-15T08:59:50.661Z,61.07
2018-05-15T09:02:18.825Z,67.30
2018-05-15T09:04:46.983Z,66.83
2018-05-15T09:07:15.916Z,63.80
2018-05-15T09:09:44.061Z,62.43
2018-05-15T09:12:12.197Z,60.20
2018-05-15T09:14:40.397Z,66.37
2018-05-15T09:17:09.439Z,69.57
2018-05-15T09:19:37.576Z,69.30
2018-05-15T09:22:05.748Z,65.27
2018-05-15T09:24:33.900Z,70.27
2018-05-15T09:27:02.823Z,62.97
2018-05-15T09:29:30.992Z,59.33
2018-05-15T09:31:59.172Z,54.67
2018-05-15T09:34:27.288Z,51.97
2018-05-15T09:36:55.428Z,51.17
2018-05-15T09:39:23.566Z,59.43
2018-05-15T09:41:52.481Z,50.53
2018-05-15T09:44:20.629Z,49.43
2018-05-15T09:46:49.622Z,45.77
2018-05-15T09:49:17.673Z,47.30
2018-05-15T09:51:47.432Z,47.97
2018-05-15T09:54:15.580Z,57.77
2018-05-15T09:56:43.732Z,49.50
2018-05-15T09:59:12.772Z,43.77
2018-05-15T10:01:40.915Z,37.80
2018-05-15T10:04:09.940Z,41.40
2018-05-15T10:06:38.112Z,41.40
2018-05-15T10:09:06.289Z,47.47
2018-05-15T10:11:34.444Z,44.10
2018-05-15T10:14:02.598Z,34.83
2018-05-15T10:16:31.528Z,40.80
2018-05-15T10:18:59.670Z,38.73
2018-05-15T10:21:28.565Z,34.07
2018-05-15T10:23:57.480Z,36.20
2018-05-15T10:26:25.663Z,32.87
2018-05-15T10:28:53.829Z,29.93
2018-05-15T10:31:21.970Z,31.13
2018-05-15T10:33:50.989Z,30.00
2018-05-15T10:36:19.162Z,33.20
2018-05-15T10:38:47.312Z,29.27
2018-05-15T10:41:16.233Z,27.77
2018-05-15T10:43:44.441Z,24.00
2018-05-15T10:46:12.579Z,28.57
2018-05-15T10:48:40.858Z,23.37
2018-05-15T10:51:08.974Z,26.23
2018-05-15T10:53:37.127Z,22.60
2018-05-15T10:56:06.507Z,23.73
2018-05-15T10:58:34.795Z,21.97
2018-05-15T11:01:03.059Z,21.97
2018-05-15T11:03:31.336Z,20.33
2018-05-15T11:05:59.454Z,18.63
2018-05-15T11:08:27.607Z,22.57
2018-05-15T11:10:55.749Z,24.70
2018-05-15T11:13:24.031Z,21.93
2018-05-15T11:15:52.199Z,21.67
2018-05-15T11:18:32.186Z,17.20
2018-05-15T11:21:12.257Z,16.77
2018-05-15T11:23:52.353Z,17.90
2018-05-15T11:26:20.525Z,14.73
2018-05-15T11:28:48.674Z,16.50
2018-05-15T11:31:17.949Z,19.83
2018-05-15T11:33:46.119Z,18.43
2018-05-15T11:36:14.273Z,12.73
2018-05-15T11:38:42.423Z,15.53
2018-05-15T11:41:10.549Z,17.93
2018-05-15T11:43:38.779Z,17.93
2018-05-15T11:46:06.917Z,10.80
2018-05-15T11:48:36.406Z,9.10
2018-05-15T11:51:04.785Z,10.93
2018-05-15T11:53:32.249Z,12.83
2018-05-15T11:56:00.511Z,7.33
2018-05-15T11:58:28.625Z,8.00
2018-05-15T12:00:56.795Z,13.73
2018-05-15T12:03:24.991Z,10.80
2018-05-15T12:05:53.147Z,10.43
2018-05-15T12:08:21.430Z,12.93
2018-05-15T12:10:49.507Z,8.37
2018-05-15T12:13:17.709Z,10.10
2018-05-15T12:15:46.309Z,8.53
2018-05-15T12:18:14.529Z,6.50
2018-05-15T12:20:42.710Z,15.13
2018-05-15T12:23:10.913Z,8.00
2018-05-15T12:25:39.044Z,10.73
2018-05-15T12:28:07.312Z,13.27
2018-05-15T12:30:35.353Z,6.20
2018-05-15T12:33:03.493Z,9.83
2018-05-15T12:35:31.631Z,9.90
2018-05-15T12:38:00.555Z,8.77
2018-05-15T12:40:28.681Z,9.00
2018-05-15T12:42:57.701Z,8.83
2018-05-15T12:45:25.843Z,9.10
2018-05-15T12:47:54.828Z,14.30
2018-05-15T12:50:22.973Z,16.80
2018-05-15T12:52:51.098Z,8.87
2018-05-15T12:55:20.012Z,8.97
2018-05-15T12:57:48.176Z,11.53
2018-05-15T13:00:16.375Z,7.03
2018-05-15T13:02:44.557Z,8.33
2018-05-15T13:05:12.821Z,9.73
2018-05-15T13:07:40.969Z,10.73
2018-05-15T13:10:09.080Z,10.10
2018-05-15T13:12:37.322Z,13.20
2018-05-15T13:15:05.456Z,11.97
2018-05-15T13:17:33.577Z,11.80
2018-05-15T13:20:01.724Z,14.17
2018-05-15T13:22:30.652Z,20.40
2018-05-15T13:24:58.841Z,11.20
2018-05-15T13:27:27.000Z,6.90
2018-05-15T13:29:55.204Z,9.97
2018-05-15T13:32:23.331Z,9.67
2018-05-15T13:34:51.507Z,11.00
2018-05-15T13:37:19.654Z,12.87
2018-05-15T13:39:48.605Z,12.70
2018-05-15T13:42:16.755Z,12.57
2018-05-15T13:44:44.937Z,11.10
2018-05-15T13:47:13.110Z,22.93
2018-05-15T13:49:41.248Z,11.10
2018-05-15T13:52:10.161Z,11.00
2018-05-15T13:54:38.285Z,10.80
2018-05-15T13:57:06.502Z,7.10
2018-05-15T13:59:35.515Z,9.03
2018-05-15T14:02:03.633Z,9.43
2018-05-15T14:04:31.783Z,10.20
2018-05-15T14:07:00.049Z,12.63
2018-05-15T14:09:28.222Z,9.63
2018-05-15T14:11:56.374Z,14.93
2018-05-15T14:14:24.529Z,15.83
2018-05-15T14:16:53.421Z,7.50
2018-05-15T14:19:22.341Z,11.13
2018-05-15T14:21:50.461Z,7.17
2018-05-15T14:24:18.585Z,8.27
2018-05-15T14:26:46.723Z,10.87
2018-05-15T14:29:15.755Z,9.03
2018-05-15T14:31:43.865Z,7.83
2018-05-15T14:34:12.042Z,7.97
2018-05-15T14:36:40.163Z,7.17
2018-05-15T14:39:08.341Z,8.03
2018-05-15T14:44:35.540Z,8.30
2018-05-15T14:47:03.795Z,8.63
2018-05-15T14:49:31.916Z,8.93
2018-05-15T14:52:00.144Z,10.20
2018-05-15T14:54:28.289Z,8.27
2018-05-15T14:56:57.197Z,6.57
2018-05-15T14:59:26.612Z,10.63
2018-05-15T15:01:54.730Z,8.10
2018-05-15T15:04:22.902Z,10.97
2018-05-15T15:06:51.013Z,7.03
2018-05-15T15:09:19.153Z,9.60
2018-05-15T15:11:47.309Z,7.87
2018-05-15T15:14:15.444Z,4.90
2018-05-15T15:16:43.624Z,9.30
2018-05-15T15:19:11.740Z,7.20
2018-05-15T15:21:40.077Z,6.47
2018-05-15T15:24:08.238Z,5.83
2018-05-15T15:26:36.427Z,5.83
2018-05-15T15:29:04.587Z,5.80
2018-05-15T15:31:32.730Z,7.60
2018-05-15T15:34:00.884Z,6.67
2018-05-15T15:36:29.126Z,6.07
2018-05-15T15:38:57.313Z,8.90
2018-05-15T15:41:25.570Z,8.23
2018-05-15T15:43:53.886Z,6.70
2018-05-15T15:46:21.994Z,8.63
2018-05-15T15:48:50.894Z,8.07
2018-05-15T15:51:19.046Z,4.90
2018-05-15T15:53:47.271Z,7.77
2018-05-15T15:56:15.407Z,6.67
2018-05-15T15:58:44.427Z,6.63
2018-05-15T16:01:12.705Z,5.23
2018-05-15T16:03:40.980Z,6.20
2018-05-15T16:06:09.096Z,6.47
2018-05-15T16:08:37.264Z,8.07
2018-05-15T16:11:05.494Z,6.13
2018-05-15T16:13:33.635Z,4.87
2018-05-15T16:16:02.668Z,7.23
2018-05-15T16:18:30.946Z,8.07
2018-05-15T16:20:59.073Z,4.70
2018-05-15T16:23:27.206Z,5.83
2018-05-15T16:25:55.339Z,6.13
2018-05-15T16:28:24.255Z,5.70
2018-05-15T16:30:52.454Z,10.90
2018-05-15T16:33:20.576Z,8.07
2018-05-15T16:35:48.699Z,5.53
2018-05-15T16:38:16.863Z,8.40
2018-05-15T16:40:45.128Z,9.30
2018-05-15T16:43:13.297Z,6.93
2018-05-15T16:45:41.462Z,7.70
2018-05-15T16:48:09.583Z,6.60
2018-05-15T16:50:37.737Z,8.20
2018-05-15T16:53:05.845Z,7.57
2018-05-15T16:55:34.069Z,4.80
2018-05-15T16:58:02.309Z,7.70
2018-05-15T17:00:31.229Z,8.10
2018-05-15T17:02:59.373Z,8.60
2018-05-15T17:05:28.290Z,7.10
2018-05-15T17:07:56.493Z,6.87
2018-05-15T17:10:24.673Z,8.40
2018-05-15T17:12:52.796Z,7.20
2018-05-15T17:15:21.682Z,7.23
2018-05-15T17:17:50.604Z,5.43
2018-05-15T17:20:18.736Z,7.07
2018-05-15T17:22:47.654Z,6.53
2018-05-15T17:25:15.840Z,4.93
2018-05-15T17:27:44.120Z,9.57
2018-05-15T17:30:12.236Z,6.90
2018-05-15T17:32:40.396Z,6.40
2018-05-15T17:35:08.548Z,6.20
2018-05-15T17:37:36.688Z,5.27
2018-05-15T17:40:05.606Z,6.07
2018-05-15T17:42:33.776Z,6.03
2018-05-15T17:45:01.924Z,10.73
2018-05-15T17:47:30.861Z,7.10
2018-05-15T17:49:58.944Z,6.40
2018-05-15T17:52:27.101Z,10.97
2018-05-15T17:54:55.367Z,7.63
2018-05-15T17:57:23.532Z,5.50
2018-05-15T17:59:51.705Z,7.67
2018-05-15T18:02:20.684Z,4.37
2018-05-15T18:04:48.881Z,7.10
2018-05-15T18:07:17.156Z,6.20
2018-05-15T18:09:45.333Z,5.80
2018-05-15T18:12:13.505Z,7.10
2018-05-15T18:14:41.628Z,9.67
2018-05-15T18:17:09.759Z,8.77
2018-05-15T18:19:37.892Z,11.63
2018-05-15T18:22:06.819Z,6.00
2018-05-15T18:24:34.989Z,5.80
2018-05-15T18:27:03.128Z,7.37
2018-05-15T18:29:31.338Z,8.50
2018-05-15T18:31:59.615Z,7.07
2018-05-15T18:34:27.718Z,6.70
2018-05-15T18:36:55.880Z,7.40
2018-05-15T18:39:24.034Z,7.57
2018-05-15T18:44:45.580Z,8.07
2018-05-15T18:47:13.850Z,10.17
2018-05-15T18:49:41.981Z,7.23
2018-05-15T18:52:10.120Z,5.57
2018-05-15T18:54:38.281Z,6.27
2018-05-15T18:57:06.443Z,8.07
2018-05-15T18:59:35.418Z,8.07
2018-05-15T19:02:03.623Z,6.10
2018-05-15T19:04:31.749Z,6.87
2018-05-15T19:07:00.652Z,7.13
2018-05-15T19:09:29.636Z,7.90
2018-05-15T19:11:58.666Z,8.20
2018-05-15T19:14:27.042Z,6.87
2018-05-15T19:16:55.152Z,4.53
2018-05-15T19:19:23.394Z,6.93
2018-05-15T19:21:51.421Z,5.17
2018-05-15T19:24:20.341Z,7.13
2018-05-15T19:26:48.468Z,5.47
2018-05-15T19:29:16.669Z,6.60
2018-05-15T19:31:45.606Z,8.80
2018-05-15T19:34:19.488Z,6.17
2018-05-15T19:36:53.268Z,11.87
2018-05-15T19:39:28.001Z,7.63
2018-05-15T19:42:08.804Z,9.37
2018-05-15T19:44:36.977Z,7.83
2018-05-15T19:47:05.151Z,4.93
2018-05-15T19:49:33.416Z,5.43
2018-05-15T19:52:01.614Z,6.60
2018-05-15T19:54:40.738Z,5.93
2018-05-15T19:57:08.848Z,7.10
2018-05-15T19:59:37.084Z,7.40
2018-05-15T20:02:08.042Z,9.43
2018-05-15T20:04:36.294Z,6.30
2018-05-15T20:07:04.430Z,8.20
2018-05-15T20:09:33.324Z,7.17
2018-05-15T20:12:02.272Z,7.93
2018-05-15T20:14:30.512Z,6.97
2018-05-15T20:16:58.640Z,7.83
2018-05-15T20:19:26.793Z,7.03
2018-05-15T20:21:54.922Z,9.90
2018-05-15T20:24:23.863Z,6.37
2018-05-15T20:26:51.992Z,8.37
2018-05-15T20:29:20.185Z,6.30
2018-05-15T20:31:48.323Z,7.33
2018-05-15T20:34:17.228Z,7.17
2018-05-15T20:36:46.195Z,12.80
2018-05-15T20:39:14.262Z,8.23
2018-05-15T20:41:42.489Z,7.30
2018-05-15T20:44:10.653Z,9.30
2018-05-15T20:46:38.827Z,9.30
2018-05-15T20:49:06.944Z,6.37
2018-05-15T20:51:35.078Z,6.90
2018-05-15T20:54:03.258Z,8.60
2018-05-15T20:56:31.423Z,11.00
2018-05-15T20:58:59.551Z,9.87
2018-05-15T21:01:27.734Z,7.77
2018-05-15T21:03:55.939Z,9.83
2018-05-15T21:06:24.232Z,10.20
2018-05-15T21:08:52.345Z,10.30
2018-05-15T21:11:20.577Z,8.37
2018-05-15T21:13:48.689Z,9.47
2018-05-15T21:16:16.930Z,11.73
2018-05-15T21:18:45.074Z,11.40
2018-05-15T21:21:13.959Z,7.80
2018-05-15T21:23:42.961Z,7.47
2018-05-15T21:26:11.261Z,10.90
2018-05-15T21:28:39.433Z,11.67
2018-05-15T21:31:07.574Z,12.90
2018-05-15T21:33:36.549Z,12.20
2018-05-15T21:36:04.763Z,12.87
2018-05-15T21:38:32.891Z,9.80
2018-05-15T21:41:01.029Z,12.03
2018-05-15T21:43:29.213Z,12.47
2018-05-15T21:45:57.337Z,10.33
2018-05-15T21:48:26.228Z,10.03
2018-05-15T21:50:55.256Z,15.33
2018-05-15T21:53:23.398Z,10.87
2018-05-15T21:55:52.399Z,12.73
2018-05-15T21:58:20.575Z,11.03
2018-05-15T22:00:48.713Z,11.00
2018-05-15T22:03:18.383Z,12.40
2018-05-15T22:05:46.569Z,13.17
2018-05-15T22:08:14.693Z,9.87
2018-05-15T22:10:43.589Z,11.13
2018-05-15T22:13:24.341Z,14.60
2018-05-15T22:16:05.349Z,12.47
2018-05-15T22:18:45.609Z,15.73
2018-05-15T22:21:25.551Z,14.00
2018-05-15T22:23:53.216Z,12.63
2018-05-15T22:26:21.387Z,12.83
2018-05-15T22:28:49.513Z,13.17
2018-05-15T22:31:17.672Z,12.73
2018-05-15T22:33:45.821Z,23.63
2018-05-15T22:36:13.972Z,15.73
2018-05-15T22:38:42.853Z,10.87
2018-05-15T22:41:11.764Z,16.33
2018-05-15T22:43:39.913Z,11.87
2018-05-15T22:46:08.820Z,14.47
2018-05-15T22:48:36.959Z,14.93
2018-05-15T22:51:05.089Z,14.03
2018-05-15T22:53:33.254Z,13.80
2018-05-15T22:56:01.427Z,14.60
2018-05-15T22:58:29.588Z,15.53
2018-05-15T23:00:57.722Z,10.30
2018-05-15T23:03:25.876Z,11.37
2018-05-15T23:05:54.017Z,13.13
2018-05-15T23:08:22.272Z,12.87
2018-05-15T23:10:51.188Z,11.17
2018-05-15T23:13:19.315Z,13.37
2018-05-15T23:15:48.228Z,10.13
2018-05-15T23:18:16.272Z,10.63
2018-05-15T23:20:44.400Z,14.07
2018-05-15T23:23:12.568Z,11.67
2018-05-15T23:25:40.701Z,12.80
2018-05-15T23:28:08.818Z,14.23
2018-05-15T23:30:36.980Z,16.20
2018-05-15T23:33:05.121Z,11.40
2018-05-15T23:35:33.261Z,8.97
2018-05-15T23:38:01.380Z,12.20
2018-05-15T23:40:30.268Z,12.50
2018-05-15T23:42:59.280Z,10.27
2018-05-15T23:45:27.446Z,12.23
2018-05-15T23:47:56.344Z,9.80
2018-05-15T23:50:24.507Z,11.53
2018-05-15T23:52:53.421Z,9.90
2018-05-15T23:55:21.597Z,12.13
2018-05-15T23:57:49.719Z,14.60
